Time;durP1;ratioP1;P1;durP2;ratioP2;P2;SDS_P1;SDS_P2;PMS_P1;PMS_P2;Temp;Humidity;BMP_temperature;BMP_pressure;BME280_temperature;BME280_humidity;BME280_pressure;Samples;Min_cycle;Max_cycle;Signal;HPM_P1;HPM_P2
2024/01/09 00:01:51;;;;;;;11.13;5.43;;;6.10;64.40;;;;;;6252718;28;20572;-78
2024/01/09 00:04:53;;;;;;;7.95;4.82;;;6.10;64.50;;;;;;6271533;28;20283;-77
2024/01/09 00:07:59;;;;;;;10.30;4.82;;;6.00;64.40;;;;;;6268696;28;20044;-78
2024/01/09 00:11:00;;;;;;;9.20;4.35;;;6.00;64.50;;;;;;6269529;28;20477;-77
2024/01/09 00:14:02;;;;;;;8.20;4.93;;;6.00;64.60;;;;;;6271289;28;20028;-78
2024/01/09 00:17:07;;;;;;;7.97;4.15;;;6.00;64.70;;;;;;6259086;28;20119;-78
2024/01/09 00:20:10;;;;;;;13.40;5.55;;;6.00;64.60;;;;;;6267484;28;20455;-78
2024/01/09 00:23:11;;;;;;;11.77;5.63;;;5.90;64.40;;;;;;6240754;28;20040;-77
2024/01/09 00:26:13;;;;;;;13.10;5.28;;;5.90;64.40;;;;;;6270405;28;20675;-79
2024/01/09 00:29:16;;;;;;;7.55;4.60;;;5.90;64.60;;;;;;6260565;28;20025;-75
2024/01/09 00:32:17;;;;;;;9.60;4.40;;;5.90;64.60;;;;;;6238052;28;20052;-77
2024/01/09 00:35:19;;;;;;;12.43;6.43;;;5.90;64.60;;;;;;6264057;28;20021;-77
2024/01/09 00:38:23;;;;;;;11.25;5.00;;;5.90;64.60;;;;;;6263994;28;20035;-77
2024/01/09 00:41:33;;;;;;;9.43;4.40;;;5.90;64.60;;;;;;6252252;28;20021;-78
2024/01/09 00:44:34;;;;;;;7.00;4.43;;;6.00;64.50;;;;;;6266626;28;20626;-78
2024/01/09 00:47:35;;;;;;;10.35;5.43;;;6.00;64.60;;;;;;6247087;28;20033;-77
2024/01/09 00:50:36;;;;;;;8.80;4.85;;;6.00;64.70;;;;;;6264039;28;20028;-78
2024/01/09 00:53:37;;;;;;;6.38;4.43;;;6.00;64.60;;;;;;6251909;28;20453;-77
2024/01/09 00:56:38;;;;;;;12.63;5.88;;;6.00;64.70;;;;;;6246579;28;20159;-78
2024/01/09 00:59:39;;;;;;;11.52;4.78;;;6.00;64.80;;;;;;6251665;28;20031;-78
2024/01/09 01:02:40;;;;;;;10.32;4.85;;;6.00;64.90;;;;;;6268207;28;20100;-78
2024/01/09 01:05:43;;;;;;;10.40;5.45;;;6.00;64.90;;;;;;6269408;28;20539;-77
2024/01/09 01:08:45;;;;;;;6.80;3.55;;;6.00;64.90;;;;;;6276156;28;20901;-78
2024/01/09 01:11:46;;;;;;;7.68;4.80;;;6.10;64.90;;;;;;6272909;28;20031;-77
2024/01/09 01:14:49;;;;;;;8.48;5.13;;;6.10;64.80;;;;;;6269134;28;20028;-78
2024/01/09 01:17:49;;;;;;;11.00;5.38;;;6.20;64.80;;;;;;6245447;28;20109;-78
2024/01/09 01:20:50;;;;;;;8.57;5.10;;;6.20;64.50;;;;;;6269290;28;20430;-78
2024/01/09 01:23:51;;;;;;;10.70;4.80;;;6.20;64.30;;;;;;6271069;28;20117;-77
2024/01/09 01:26:54;;;;;;;9.68;4.78;;;6.30;64.20;;;;;;6273914;28;20174;-77
2024/01/09 01:29:56;;;;;;;17.67;5.80;;;6.30;64.00;;;;;;6266240;28;20021;-77
2024/01/09 01:32:58;;;;;;;6.38;3.75;;;6.30;64.10;;;;;;6270325;28;20837;-77
2024/01/09 01:36:00;;;;;;;7.15;4.60;;;6.30;63.90;;;;;;6272545;28;20486;-78
2024/01/09 01:39:01;;;;;;;11.85;5.15;;;6.30;64.70;;;;;;6272497;28;20485;-78
2024/01/09 01:42:03;;;;;;;10.98;4.85;;;6.30;63.80;;;;;;6271864;28;20017;-77
2024/01/09 01:45:18;;;;;;;10.10;4.90;;;6.20;63.80;;;;;;6256783;28;20031;-77
2024/01/09 01:48:21;;;;;;;10.95;5.68;;;6.20;63.80;;;;;;6252242;28;20028;-77
2024/01/09 01:51:21;;;;;;;14.52;4.30;;;6.20;63.80;;;;;;6272709;28;20035;-78
2024/01/09 01:54:23;;;;;;;10.40;4.93;;;6.20;63.90;;;;;;6271681;28;20048;-78
2024/01/09 01:57:24;;;;;;;10.88;5.85;;;6.20;63.80;;;;;;6273627;28;20448;-78
2024/01/09 02:00:27;;;;;;;8.07;4.85;;;6.20;63.80;;;;;;6275062;28;20113;-76
2024/01/09 02:03:29;;;;;;;6.28;4.07;;;6.10;63.60;;;;;;6272543;28;20036;-77
2024/01/09 02:06:31;;;;;;;9.80;4.93;;;6.10;63.60;;;;;;6272967;28;20442;-77
2024/01/09 02:09:33;;;;;;;16.50;5.85;;;6.10;63.80;;;;;;6251979;28;20024;-77
2024/01/09 02:12:37;;;;;;;9.10;4.28;;;6.10;63.80;;;;;;6265947;28;20013;-78
2024/01/09 02:15:39;;;;;;;12.05;4.55;;;6.10;63.60;;;;;;6271893;28;20464;-77
2024/01/09 02:18:40;;;;;;;14.88;6.03;;;6.10;63.70;;;;;;6272269;28;20075;-78
2024/01/09 02:21:43;;;;;;;11.57;5.50;;;6.10;63.70;;;;;;6272078;28;20021;-77
2024/01/09 02:24:47;;;;;;;8.30;4.97;;;6.10;63.80;;;;;;6271720;28;20024;-77
2024/01/09 02:27:56;;;;;;;6.15;4.40;;;6.10;64.00;;;;;;6243366;28;20037;-77
2024/01/09 02:30:58;;;;;;;13.23;5.63;;;6.10;64.00;;;;;;6284967;28;20141;-78
2024/01/09 02:34:01;;;;;;;11.55;5.25;;;6.10;64.20;;;;;;6269182;28;21451;-76
2024/01/09 02:37:02;;;;;;;11.48;6.15;;;6.10;64.30;;;;;;6270124;28;20055;-75
2024/01/09 02:40:03;;;;;;;6.82;4.72;;;6.10;64.30;;;;;;6248909;28;20025;-78
2024/01/09 02:43:05;;;;;;;10.88;5.53;;;5.90;64.30;;;;;;6266404;28;20041;-77
2024/01/09 02:46:06;;;;;;;9.65;4.95;;;6.10;64.50;;;;;;6272214;28;20203;-77
2024/01/09 02:49:07;;;;;;;10.77;5.82;;;6.10;64.40;;;;;;6271319;28;20016;-77
2024/01/09 02:52:08;;;;;;;13.00;5.65;;;6.20;64.50;;;;;;6270400;28;20024;-78
2024/01/09 02:55:10;;;;;;;12.15;5.45;;;6.20;64.60;;;;;;6277733;28;20020;-78
2024/01/09 02:58:12;;;;;;;18.08;6.00;;;6.30;64.50;;;;;;6272567;28;20028;-74
2024/01/09 03:01:15;;;;;;;12.70;5.97;;;6.30;64.30;;;;;;6267800;28;20017;-77
2024/01/09 03:04:17;;;;;;;8.85;5.25;;;6.20;64.30;;;;;;6251409;28;20035;-78
2024/01/09 03:07:26;;;;;;;11.17;5.40;;;6.20;64.50;;;;;;6250954;28;20568;-77
2024/01/09 03:10:27;;;;;;;13.77;6.13;;;6.20;64.70;;;;;;6249817;28;20294;-77
2024/01/09 03:13:28;;;;;;;14.65;7.28;;;6.20;64.50;;;;;;6260752;28;20117;-76
2024/01/09 03:16:29;;;;;;;12.30;5.32;;;6.20;64.50;;;;;;6271923;28;20248;-77
2024/01/09 03:19:30;;;;;;;10.32;5.50;;;6.20;64.50;;;;;;6251329;28;20029;-78
2024/01/09 03:22:31;;;;;;;9.35;5.15;;;6.20;64.40;;;;;;6269470;28;20020;-77
2024/01/09 03:25:32;;;;;;;9.73;5.32;;;6.10;64.40;;;;;;6268556;28;20021;-78
2024/01/09 03:28:32;;;;;;;8.52;5.07;;;6.10;64.50;;;;;;6250295;28;20406;-77
2024/01/09 03:31:33;;;;;;;16.17;6.20;;;6.10;64.70;;;;;;6251040;28;20423;-76
2024/01/09 03:34:34;;;;;;;13.48;7.22;;;6.20;64.70;;;;;;6252920;28;20022;-78
2024/01/09 03:37:37;;;;;;;11.23;5.05;;;6.20;64.60;;;;;;6247733;28;20497;-77
2024/01/09 03:40:38;;;;;;;11.27;6.07;;;6.20;64.50;;;;;;6264590;28;20508;-77
2024/01/09 03:43:39;;;;;;;12.05;5.90;;;6.20;64.40;;;;;;6269377;28;20024;-78
2024/01/09 03:46:40;;;;;;;10.65;4.95;;;6.20;64.50;;;;;;6247831;28;20033;-77
2024/01/09 03:49:41;;;;;;;10.27;5.47;;;6.30;64.30;;;;;;6268811;28;20137;-77
2024/01/09 03:52:42;;;;;;;10.65;5.63;;;6.30;63.90;;;;;;6265021;28;20021;-78
2024/01/09 03:55:44;;;;;;;13.80;6.03;;;6.20;63.40;;;;;;6302104;28;20019;-78
2024/01/09 03:58:46;;;;;;;11.02;5.93;;;6.20;63.30;;;;;;6254691;28;20429;-79
2024/01/09 04:01:47;;;;;;;12.13;4.97;;;6.20;63.30;;;;;;6266593;28;20021;-78
2024/01/09 04:04:49;;;;;;;10.48;5.65;;;6.20;63.30;;;;;;6267090;28;20526;-78
2024/01/09 04:07:50;;;;;;;13.65;6.70;;;6.20;63.40;;;;;;6254035;28;20047;-77
2024/01/09 04:10:51;;;;;;;9.45;5.03;;;6.20;63.50;;;;;;6253358;28;20464;-77
2024/01/09 04:13:53;;;;;;;12.90;6.50;;;6.30;63.10;;;;;;6265820;28;20012;-77
2024/01/09 04:16:54;;;;;;;11.05;6.13;;;6.20;62.70;;;;;;6268866;28;20074;-77
2024/01/09 04:19:54;;;;;;;13.13;6.43;;;6.20;62.70;;;;;;6274049;28;20048;-76
2024/01/09 04:22:55;;;;;;;14.70;7.20;;;6.20;63.00;;;;;;6278858;28;20150;-78
2024/01/09 04:25:59;;;;;;;12.35;6.97;;;6.30;63.30;;;;;;6264665;28;20029;-76
2024/01/09 04:29:00;;;;;;;11.43;5.28;;;6.30;62.90;;;;;;6269497;28;20104;-78
2024/01/09 04:32:01;;;;;;;12.52;6.25;;;6.30;62.80;;;;;;6266723;28;20020;-78
2024/01/09 04:35:02;;;;;;;12.38;5.75;;;6.30;62.60;;;;;;6271062;28;20052;-77
2024/01/09 04:38:04;;;;;;;10.77;6.25;;;6.30;62.20;;;;;;6268536;28;20272;-77
2024/01/09 04:41:04;;;;;;;9.93;5.68;;;6.30;62.50;;;;;;6254629;28;20038;-77
2024/01/09 04:44:05;;;;;;;12.90;7.05;;;6.30;62.40;;;;;;6266739;28;20136;-77
2024/01/09 04:47:06;;;;;;;16.73;8.13;;;6.20;62.30;;;;;;6262782;28;20104;-77
2024/01/09 04:50:08;;;;;;;10.18;5.50;;;6.20;62.50;;;;;;6249706;28;20044;-77
2024/01/09 04:53:09;;;;;;;18.45;7.88;;;6.20;62.80;;;;;;6254719;28;20024;-78
2024/01/09 04:56:12;;;;;;;10.90;4.15;;;6.10;62.90;;;;;;6262028;28;20468;-77
2024/01/09 04:59:13;;;;;;;13.75;6.50;;;6.10;63.30;;;;;;6301375;28;20056;-77
2024/01/09 05:02:14;;;;;;;15.13;7.65;;;6.10;63.70;;;;;;6269636;28;20492;-78
2024/01/09 05:05:15;;;;;;;13.25;7.53;;;6.00;64.20;;;;;;6256377;28;20588;-78
2024/01/09 05:08:17;;;;;;;17.63;6.95;;;6.00;64.60;;;;;;6267340;28;20031;-78
2024/01/09 05:11:22;;;;;;;8.10;5.72;;;6.00;64.90;;;;;;6276346;28;20024;-79
2024/01/09 05:14:22;;;;;;;11.65;6.80;;;6.00;65.00;;;;;;6266324;28;20047;-76
2024/01/09 05:17:24;;;;;;;13.45;6.85;;;6.00;65.30;;;;;;6274229;28;20054;-78
2024/01/09 05:20:28;;;;;;;16.17;8.68;;;6.00;65.50;;;;;;6253739;28;20028;-79
2024/01/09 05:23:29;;;;;;;10.90;5.72;;;5.90;65.50;;;;;;6273143;28;20041;-77
2024/01/09 05:26:30;;;;;;;16.13;7.30;;;5.90;66.00;;;;;;6254336;28;20496;-78
2024/01/09 05:29:31;;;;;;;16.40;6.72;;;5.80;65.70;;;;;;6270009;28;20127;-78
2024/01/09 05:32:31;;;;;;;9.60;5.70;;;5.80;65.90;;;;;;6234229;28;20097;-78
2024/01/09 05:35:32;;;;;;;13.52;7.55;;;5.80;66.10;;;;;;6273030;28;20016;-79
2024/01/09 05:38:33;;;;;;;15.63;7.50;;;5.70;66.30;;;;;;6269949;28;20528;-77
2024/01/09 05:41:35;;;;;;;12.18;6.82;;;5.80;66.10;;;;;;6268045;28;20115;-78
2024/01/09 05:44:37;;;;;;;16.58;7.50;;;5.70;66.10;;;;;;6273261;28;20017;-77
2024/01/09 05:47:40;;;;;;;15.18;8.02;;;5.80;66.30;;;;;;6250129;28;20036;-78
2024/01/09 05:50:41;;;;;;;16.27;8.30;;;5.70;66.40;;;;;;6267812;28;20452;-78
2024/01/09 05:53:47;;;;;;;17.90;7.95;;;5.70;66.50;;;;;;6267157;28;20032;-76
2024/01/09 05:56:48;;;;;;;12.63;5.95;;;5.70;66.60;;;;;;6273838;28;20029;-79
2024/01/09 05:59:49;;;;;;;10.27;6.40;;;5.80;66.70;;;;;;6272094;28;20021;-78
2024/01/09 06:02:51;;;;;;;16.60;6.10;;;5.80;66.70;;;;;;6254911;28;20523;-78
2024/01/09 06:05:53;;;;;;;13.93;6.97;;;5.80;66.90;;;;;;6253626;28;20084;-78
2024/01/09 06:08:55;;;;;;;17.23;7.25;;;5.80;66.60;;;;;;6263765;28;20115;-77
2024/01/09 06:11:57;;;;;;;13.65;6.50;;;5.80;66.50;;;;;;6252541;28;20028;-77
2024/01/09 06:14:59;;;;;;;19.08;9.38;;;5.90;66.30;;;;;;6247594;28;20024;-78
2024/01/09 06:18:05;;;;;;;10.40;4.75;;;5.90;66.00;;;;;;6271054;28;20043;-78
2024/01/09 06:21:07;;;;;;;10.63;5.88;;;5.80;65.90;;;;;;6271250;28;21205;-76
2024/01/09 06:24:09;;;;;;;17.77;8.57;;;5.80;65.50;;;;;;6269697;28;20123;-79
2024/01/09 06:27:09;;;;;;;17.60;7.75;;;5.80;65.40;;;;;;6254298;28;20036;-76
2024/01/09 06:30:11;;;;;;;12.90;5.68;;;5.80;65.60;;;;;;6263863;28;20110;-78
2024/01/09 06:33:13;;;;;;;15.13;8.52;;;5.80;65.60;;;;;;6250785;28;20135;-78
2024/01/09 06:36:13;;;;;;;13.73;8.60;;;5.80;65.70;;;;;;6238110;28;20060;-78
2024/01/09 06:39:15;;;;;;;15.85;8.88;;;5.80;65.80;;;;;;6268299;28;20215;-76
2024/01/09 06:42:16;;;;;;;11.05;6.80;;;5.80;66.10;;;;;;6267682;28;20406;-77
2024/01/09 06:45:17;;;;;;;14.27;7.53;;;5.90;66.20;;;;;;6237001;28;20106;-78
2024/01/09 06:48:18;;;;;;;14.52;6.95;;;5.80;65.90;;;;;;6267287;28;20483;-77
2024/01/09 06:51:20;;;;;;;12.88;7.90;;;5.80;66.00;;;;;;6271619;28;20044;-79
2024/01/09 06:54:21;;;;;;;18.75;7.45;;;5.70;66.00;;;;;;6250103;28;20517;-78
2024/01/09 06:57:22;;;;;;;14.30;7.00;;;5.70;66.50;;;;;;6255074;28;20061;-77
2024/01/09 07:00:23;;;;;;;13.15;6.00;;;5.70;66.70;;;;;;6250576;28;20138;-79
2024/01/09 07:03:28;;;;;;;12.98;8.32;;;5.70;66.80;;;;;;6266275;28;20024;-77
2024/01/09 07:06:30;;;;;;;16.08;8.00;;;5.70;67.00;;;;;;6235501;28;20472;-77
2024/01/09 07:09:31;;;;;;;16.52;7.25;;;5.60;67.20;;;;;;6270625;28;20036;-79
2024/01/09 07:12:32;;;;;;;23.75;8.70;;;5.60;67.20;;;;;;6245958;28;20032;-77
2024/01/09 07:15:33;;;;;;;14.45;7.15;;;5.60;67.30;;;;;;6262114;28;20012;-78
2024/01/09 07:18:35;;;;;;;21.75;8.85;;;5.60;67.40;;;;;;6265625;28;20017;-76
2024/01/09 07:21:37;;;;;;;13.93;5.80;;;5.60;67.50;;;;;;6250338;28;20020;-79
2024/01/09 07:24:38;;;;;;;23.08;8.32;;;5.60;67.70;;;;;;6265222;28;20062;-78
2024/01/09 07:27:39;;;;;;;10.73;6.78;;;5.60;67.40;;;;;;6270921;28;20426;-77
2024/01/09 07:30:42;;;;;;;10.05;6.15;;;5.60;67.40;;;;;;6265562;28;20056;-78
2024/01/09 07:33:43;;;;;;;16.30;7.60;;;5.60;67.30;;;;;;6267947;28;20036;-77
2024/01/09 07:36:44;;;;;;;24.30;7.25;;;5.60;67.20;;;;;;6252966;28;20164;-78
2024/01/09 07:39:45;;;;;;;13.82;7.80;;;5.60;67.20;;;;;;6251036;28;20396;-77
2024/01/09 07:42:46;;;;;;;16.90;8.05;;;5.60;67.40;;;;;;6265148;28;20024;-79
2024/01/09 07:45:47;;;;;;;21.42;8.02;;;5.50;67.40;;;;;;6246191;28;20244;-77
2024/01/09 07:48:47;;;;;;;15.07;6.85;;;5.60;67.60;;;;;;6266978;28;20039;-77
2024/01/09 07:51:49;;;;;;;15.77;7.07;;;5.60;67.60;;;;;;6271399;28;20032;-78
2024/01/09 07:54:50;;;;;;;12.32;7.68;;;5.60;67.70;;;;;;6266578;28;20025;-76
2024/01/09 07:57:51;;;;;;;19.05;8.98;;;5.60;67.80;;;;;;6256764;28;20131;-78
2024/01/09 08:00:53;;;;;;;12.70;6.35;;;5.60;67.90;;;;;;6306291;28;20021;-78
2024/01/09 08:03:54;;;;;;;13.38;6.93;;;5.70;68.00;;;;;;6252761;28;20085;-78
2024/01/09 08:06:55;;;;;;;14.02;8.50;;;5.70;67.90;;;;;;6263313;28;20040;-77
2024/01/09 08:09:56;;;;;;;10.30;5.88;;;5.70;68.10;;;;;;6244090;28;20033;-78
2024/01/09 08:12:57;;;;;;;14.35;8.30;;;5.80;68.00;;;;;;6246999;28;20020;-79
2024/01/09 08:15:58;;;;;;;14.60;8.95;;;5.90;67.90;;;;;;6245119;28;20416;-77
2024/01/09 08:18:59;;;;;;;13.45;6.68;;;5.90;67.60;;;;;;6259730;28;20044;-77
2024/01/09 08:22:05;;;;;;;16.45;9.00;;;6.00;67.30;;;;;;6268998;28;20096;-79
2024/01/09 08:25:06;;;;;;;23.23;9.63;;;6.00;67.00;;;;;;6250958;28;20017;-79
2024/01/09 08:28:08;;;;;;;17.48;9.50;;;6.00;66.90;;;;;;6268061;28;20049;-77
2024/01/09 08:31:09;;;;;;;17.60;7.85;;;6.00;66.70;;;;;;6268451;28;20058;-77
2024/01/09 08:34:10;;;;;;;30.95;10.50;;;6.10;66.80;;;;;;6253137;28;21468;-79
2024/01/09 08:37:10;;;;;;;19.98;9.13;;;6.10;66.90;;;;;;6252857;28;20170;-78
2024/01/09 08:40:12;;;;;;;25.17;10.23;;;6.20;66.70;;;;;;6250102;28;20066;-77
2024/01/09 08:43:17;;;;;;;20.20;9.98;;;6.20;66.40;;;;;;6265777;28;20097;-79
2024/01/09 08:46:20;;;;;;;17.25;8.45;;;6.20;66.40;;;;;;6270111;28;20055;-80
2024/01/09 08:49:21;;;;;;;18.13;9.18;;;6.30;66.40;;;;;;6284703;28;20354;-78
2024/01/09 08:52:24;;;;;;;23.73;9.35;;;6.20;66.50;;;;;;6272329;28;20028;-79
2024/01/09 08:55:26;;;;;;;18.55;7.88;;;6.30;66.50;;;;;;6267930;28;20056;-77
2024/01/09 08:58:27;;;;;;;17.95;9.02;;;6.30;66.60;;;;;;6272599;28;20024;-79
2024/01/09 09:01:30;;;;;;;20.73;9.38;;;6.40;66.70;;;;;;6271166;28;20045;-79
2024/01/09 09:04:32;;;;;;;22.85;9.93;;;6.50;66.60;;;;;;6257596;28;20049;-78
2024/01/09 09:07:33;;;;;;;25.08;9.93;;;6.50;66.40;;;;;;6269051;28;20063;-79
2024/01/09 09:10:34;;;;;;;17.98;8.23;;;6.50;66.30;;;;;;6233344;28;20033;-78
2024/01/09 09:13:37;;;;;;;19.38;8.95;;;6.50;66.40;;;;;;6259918;28;20042;-79
2024/01/09 09:16:37;;;;;;;21.35;10.00;;;6.50;66.10;;;;;;6273113;28;20110;-79
2024/01/09 09:19:39;;;;;;;17.83;10.13;;;6.50;65.40;;;;;;6269187;28;20116;-78
2024/01/09 09:22:41;;;;;;;22.13;8.27;;;6.40;65.90;;;;;;6268901;28;20031;-77
2024/01/09 09:25:42;;;;;;;19.65;8.70;;;6.30;65.20;;;;;;6291387;28;20433;-77
2024/01/09 09:28:47;;;;;;;19.30;8.75;;;6.20;65.50;;;;;;6276750;28;20374;-80
2024/01/09 09:31:48;;;;;;;20.92;8.35;;;6.20;65.60;;;;;;6272519;28;20090;-76
2024/01/09 09:34:50;;;;;;;14.20;7.90;;;6.20;65.60;;;;;;6271323;28;20064;-78
2024/01/09 09:37:53;;;;;;;19.55;9.27;;;6.20;65.40;;;;;;6268948;28;20429;-79
2024/01/09 09:40:57;;;;;;;22.63;10.20;;;6.20;65.30;;;;;;6272648;28;20051;-78
2024/01/09 09:44:01;;;;;;;22.10;11.23;;;6.20;65.70;;;;;;6267225;28;20503;-78
2024/01/09 09:47:05;;;;;;;24.90;9.07;;;6.20;65.70;;;;;;6309509;28;20441;-79
2024/01/09 09:50:10;;;;;;;21.92;9.63;;;6.30;65.90;;;;;;6266737;28;20012;-78
2024/01/09 09:53:12;;;;;;;26.00;9.95;;;6.30;66.00;;;;;;6270407;28;20035;-77
2024/01/09 09:56:14;;;;;;;24.45;10.75;;;6.40;66.80;;;;;;6251886;28;20036;-78
2024/01/09 09:59:16;;;;;;;27.20;11.15;;;6.50;66.00;;;;;;6276118;28;20101;-78
2024/01/09 10:02:26;;;;;;;22.05;8.48;;;6.50;66.00;;;;;;6272117;28;20333;-78
2024/01/09 10:05:27;;;;;;;18.98;8.65;;;6.50;66.00;;;;;;6258402;28;20031;-77
2024/01/09 10:08:34;;;;;;;16.02;8.68;;;6.60;65.90;;;;;;6266897;28;20104;-79
2024/01/09 10:11:36;;;;;;;21.20;11.05;;;6.60;65.90;;;;;;6271981;28;20067;-79
2024/01/09 10:15:12;;;;;;;23.42;9.15;;;6.60;65.90;;;;;;6269881;28;20021;-79
2024/01/09 10:18:14;;;;;;;19.27;10.30;;;6.70;66.00;;;;;;6275567;28;20101;-78
2024/01/09 10:21:17;;;;;;;18.55;8.80;;;6.70;65.70;;;;;;6269275;28;20017;-77
2024/01/09 10:24:20;;;;;;;28.50;10.15;;;6.70;65.50;;;;;;6275159;28;20040;-79
2024/01/09 10:27:21;;;;;;;19.00;9.30;;;6.60;66.30;;;;;;6284596;28;20090;-78
2024/01/09 10:30:23;;;;;;;24.70;10.35;;;6.60;65.50;;;;;;6255525;28;20048;-79
2024/01/09 10:33:26;;;;;;;26.02;10.40;;;6.50;65.50;;;;;;6268905;28;20111;-78
2024/01/09 10:36:28;;;;;;;26.02;9.95;;;6.60;65.70;;;;;;6286463;28;20107;-79
2024/01/09 10:39:29;;;;;;;23.10;11.25;;;6.50;65.80;;;;;;6270403;28;20067;-78
2024/01/09 10:42:30;;;;;;;23.52;10.18;;;6.50;66.50;;;;;;6247030;28;20043;-78
2024/01/09 10:45:32;;;;;;;25.83;11.60;;;6.50;65.60;;;;;;6263714;28;20057;-78
2024/01/09 10:48:34;;;;;;;18.02;9.48;;;6.40;65.60;;;;;;6271731;28;20021;-78
2024/01/09 10:51:36;;;;;;;23.08;10.05;;;6.40;66.00;;;;;;6269031;28;20123;-77
2024/01/09 10:54:39;;;;;;;17.05;8.93;;;6.30;66.00;;;;;;6253537;28;20462;-80
2024/01/09 10:57:42;;;;;;;25.42;13.48;;;6.30;66.20;;;;;;6256278;28;20048;-78
2024/01/09 11:00:43;;;;;;;24.80;13.15;;;6.20;66.50;;;;;;6270151;28;20021;-79
2024/01/09 11:03:45;;;;;;;25.58;11.50;;;6.20;66.40;;;;;;6272080;28;20056;-80
2024/01/09 11:06:50;;;;;;;23.90;11.65;;;6.20;66.60;;;;;;6265400;28;20080;-78
2024/01/09 11:09:51;;;;;;;23.02;11.63;;;6.20;66.80;;;;;;6249640;28;20021;-79
2024/01/09 11:12:54;;;;;;;19.95;8.55;;;6.20;66.80;;;;;;6270978;28;20078;-79
2024/01/09 11:15:56;;;;;;;32.78;12.88;;;6.30;67.00;;;;;;6269771;28;20012;-79
2024/01/09 11:18:59;;;;;;;24.13;10.40;;;6.20;67.00;;;;;;6252338;28;20133;-78
2024/01/09 11:22:19;;;;;;;19.83;11.77;;;6.20;67.20;;;;;;6272598;28;20057;-76
2024/01/09 11:25:23;;;;;;;21.48;11.52;;;6.30;67.30;;;;;;6268434;28;20013;-78
2024/01/09 11:28:40;;;;;;;28.10;10.30;;;6.20;67.40;;;;;;6281322;28;20037;-79
2024/01/09 11:31:41;;;;;;;18.92;9.32;;;6.20;67.40;;;;;;6252410;28;20100;-78
2024/01/09 11:35:11;;;;;;;34.80;11.60;;;6.20;67.60;;;;;;6265794;28;20463;-79
2024/01/09 11:38:12;;;;;;;24.30;10.27;;;6.20;67.60;;;;;;6296834;28;20562;-79
2024/01/09 11:41:13;;;;;;;22.33;11.13;;;6.20;67.70;;;;;;6269848;28;20112;-80
2024/01/09 11:44:15;;;;;;;27.20;9.25;;;6.20;67.70;;;;;;6266723;28;20398;-78
2024/01/09 11:47:17;;;;;;;17.55;9.23;;;6.20;67.80;;;;;;6273278;28;20032;-77
2024/01/09 11:50:20;;;;;;;17.55;8.88;;;6.20;67.90;;;;;;6276779;28;20049;-79
2024/01/09 11:53:23;;;;;;;31.85;10.95;;;6.30;68.20;;;;;;6268302;28;20035;-77
2024/01/09 11:56:27;;;;;;;23.30;10.15;;;6.30;68.20;;;;;;6280058;28;20111;-77
2024/01/09 11:59:30;;;;;;;29.20;12.05;;;6.40;67.90;;;;;;6267937;28;20115;-78
2024/01/09 12:02:38;;;;;;;18.30;8.57;;;6.40;67.80;;;;;;6271320;28;20090;-78
2024/01/09 12:05:39;;;;;;;25.08;10.90;;;6.40;67.90;;;;;;6289537;28;20070;-77
2024/01/09 12:08:40;;;;;;;21.60;11.10;;;6.50;67.90;;;;;;6249568;28;20139;-80
2024/01/09 12:11:41;;;;;;;34.30;12.25;;;6.50;67.90;;;;;;6252802;28;20039;-77
2024/01/09 12:14:51;;;;;;;32.10;12.23;;;6.60;67.80;;;;;;6300879;28;20028;-77
2024/01/09 12:17:57;;;;;;;34.35;12.15;;;6.70;67.60;;;;;;6260077;28;20392;-79
2024/01/09 12:20:58;;;;;;;30.80;12.90;;;6.70;67.60;;;;;;6268481;28;20032;-79
2024/01/09 12:24:01;;;;;;;30.20;12.63;;;6.90;67.60;;;;;;6251831;28;20031;-78
2024/01/09 12:27:03;;;;;;;27.38;11.32;;;7.00;67.10;;;;;;6252789;28;20024;-80
2024/01/09 12:30:06;;;;;;;42.17;14.85;;;7.10;67.00;;;;;;6270771;28;20020;-78
2024/01/09 12:33:08;;;;;;;24.00;8.88;;;7.10;66.50;;;;;;6268034;28;20025;-77
2024/01/09 12:36:11;;;;;;;24.13;10.32;;;7.10;66.40;;;;;;6269223;28;20093;-77
2024/01/09 12:39:16;;;;;;;27.58;10.88;;;7.10;66.40;;;;;;6250983;28;20085;-79
2024/01/09 12:42:18;;;;;;;23.92;10.45;;;7.10;66.20;;;;;;6275353;28;20032;-78
2024/01/09 12:45:20;;;;;;;23.20;12.25;;;7.00;66.30;;;;;;6264016;28;20024;-78
2024/01/09 12:48:22;;;;;;;23.55;10.38;;;7.10;66.80;;;;;;6261986;28;20028;-78
2024/01/09 12:51:23;;;;;;;21.17;10.00;;;7.10;66.90;;;;;;6265186;28;20085;-79
2024/01/09 12:54:26;;;;;;;29.02;13.55;;;7.20;66.50;;;;;;6268144;28;20028;-78
2024/01/09 12:57:27;;;;;;;20.08;9.13;;;7.10;66.30;;;;;;6252044;28;20135;-80
2024/01/09 13:00:27;;;;;;;24.60;11.55;;;7.20;66.20;;;;;;6251790;28;20031;-78
2024/01/09 13:03:28;;;;;;;21.95;9.75;;;7.10;66.20;;;;;;6264326;28;20085;-78
2024/01/09 13:06:30;;;;;;;26.98;11.73;;;7.10;66.10;;;;;;6248171;28;20032;-78
2024/01/09 13:09:31;;;;;;;26.42;11.70;;;7.00;66.10;;;;;;6262795;28;20058;-79
2024/01/09 13:12:32;;;;;;;33.25;12.18;;;7.00;66.50;;;;;;6264706;28;20017;-79
2024/01/09 13:15:36;;;;;;;26.73;9.45;;;7.00;66.70;;;;;;6265627;28;20357;-78
2024/01/09 13:18:38;;;;;;;36.60;12.30;;;7.10;66.80;;;;;;6243895;28;20078;-80
2024/01/09 13:21:39;;;;;;;25.33;12.48;;;7.10;66.70;;;;;;6274297;28;20090;-79
2024/01/09 13:24:40;;;;;;;27.15;10.10;;;7.10;66.70;;;;;;6249091;28;20478;-78
2024/01/09 13:27:43;;;;;;;26.27;10.18;;;7.20;66.30;;;;;;6267721;28;20130;-78
2024/01/09 13:30:44;;;;;;;24.20;11.40;;;7.20;65.80;;;;;;6274878;28;20028;-78
2024/01/09 13:33:46;;;;;;;22.48;10.10;;;7.10;65.70;;;;;;6289666;28;20052;-80
2024/01/09 13:36:48;;;;;;;25.30;10.52;;;7.00;65.70;;;;;;6266878;28;20053;-80
2024/01/09 13:39:49;;;;;;;25.88;12.13;;;6.90;65.60;;;;;;6249844;28;20040;-79
2024/01/09 13:42:51;;;;;;;27.65;10.93;;;7.00;65.90;;;;;;6234392;28;20527;-78
2024/01/09 13:45:54;;;;;;;22.67;10.20;;;6.90;66.00;;;;;;6240983;28;20044;-80
2024/01/09 13:48:57;;;;;;;22.48;9.95;;;6.90;66.40;;;;;;6254363;28;20160;-79
2024/01/09 13:52:00;;;;;;;19.63;8.40;;;7.00;66.40;;;;;;6271935;28;20032;-77
2024/01/09 13:55:05;;;;;;;20.10;9.95;;;7.00;66.50;;;;;;6270153;28;20058;-78
2024/01/09 13:58:06;;;;;;;26.00;9.68;;;7.00;66.70;;;;;;6255830;28;20123;-80
2024/01/09 14:01:07;;;;;;;20.10;9.10;;;7.00;66.60;;;;;;6251855;28;20036;-81
2024/01/09 14:04:12;;;;;;;31.77;10.80;;;7.00;66.70;;;;;;6235315;28;20101;-78
2024/01/09 14:07:12;;;;;;;20.67;10.38;;;7.00;66.60;;;;;;6263938;28;20118;-78
2024/01/09 14:10:13;;;;;;;24.80;9.80;;;7.00;66.70;;;;;;6269467;28;20440;-79
2024/01/09 14:13:16;;;;;;;20.77;10.65;;;7.00;66.60;;;;;;6268886;28;20377;-78
2024/01/09 14:16:20;;;;;;;20.88;10.05;;;7.00;66.70;;;;;;6270096;28;20427;-78
2024/01/09 14:19:21;;;;;;;18.00;8.93;;;6.90;67.50;;;;;;6270825;28;20027;-80
2024/01/09 14:22:26;;;;;;;27.45;10.63;;;6.90;66.80;;;;;;6252838;28;20017;-79
2024/01/09 14:25:27;;;;;;;26.02;10.10;;;6.90;66.70;;;;;;6269234;28;20101;-78
2024/01/09 14:28:29;;;;;;;29.55;11.02;;;6.90;66.60;;;;;;6253651;28;20040;-79
2024/01/09 14:31:32;;;;;;;21.98;10.35;;;6.80;66.70;;;;;;6273583;28;20452;-78
2024/01/09 14:34:35;;;;;;;22.63;9.68;;;6.80;66.80;;;;;;6269532;28;20618;-78
2024/01/09 14:37:36;;;;;;;25.48;13.30;;;6.70;66.90;;;;;;6254794;28;20039;-81
2024/01/09 14:40:37;;;;;;;26.58;10.15;;;6.70;67.30;;;;;;6269880;28;20032;-78
2024/01/09 14:43:39;;;;;;;27.63;11.30;;;6.80;67.60;;;;;;6255920;28;20036;-78
2024/01/09 14:46:41;;;;;;;32.13;11.88;;;6.80;67.50;;;;;;6269205;28;20429;-77
2024/01/09 14:49:42;;;;;;;21.17;10.23;;;6.80;68.20;;;;;;6269257;28;20479;-80
2024/01/09 14:52:43;;;;;;;22.63;11.75;;;6.80;67.50;;;;;;6272497;28;20053;-77
2024/01/09 14:55:45;;;;;;;26.35;11.82;;;6.90;67.70;;;;;;6254824;28;20013;-79
2024/01/09 14:58:48;;;;;;;26.83;10.05;;;6.80;67.40;;;;;;6233286;28;20147;-80
2024/01/09 15:01:51;;;;;;;23.00;9.45;;;6.80;67.20;;;;;;6263003;28;20183;-78
2024/01/09 15:04:52;;;;;;;21.52;10.55;;;6.70;67.20;;;;;;6266566;28;20410;-78
2024/01/09 15:07:53;;;;;;;22.77;9.25;;;6.70;67.40;;;;;;6264268;28;20161;-79
2024/01/09 15:15:05;;;;;;;18.73;9.73;;;6.60;67.90;;;;;;6260184;28;20060;-79
2024/01/09 15:18:07;;;;;;;19.48;10.90;;;6.60;68.00;;;;;;6265340;28;20051;-80
2024/01/09 15:21:13;;;;;;;20.35;8.73;;;6.60;68.10;;;;;;6268340;28;20049;-79
2024/01/09 15:24:14;;;;;;;32.80;11.45;;;6.60;68.00;;;;;;6273662;28;20017;-77
2024/01/09 15:27:17;;;;;;;23.95;10.48;;;6.60;67.90;;;;;;6246217;28;20041;-79
2024/01/09 15:30:18;;;;;;;18.30;8.40;;;6.50;67.90;;;;;;6266942;28;20493;-81
2024/01/09 15:33:21;;;;;;;22.38;9.90;;;6.50;67.90;;;;;;6265562;28;20460;-78
2024/01/09 15:36:24;;;;;;;27.73;10.35;;;6.50;68.20;;;;;;6270572;28;20013;-79
2024/01/09 15:39:25;;;;;;;20.60;9.43;;;6.50;68.30;;;;;;6268645;28;20013;-79
2024/01/09 15:42:26;;;;;;;19.77;8.18;;;6.40;68.20;;;;;;6250212;28;20496;-79
2024/01/09 15:45:27;;;;;;;20.10;9.23;;;6.50;68.40;;;;;;6250812;28;20033;-80
2024/01/09 15:48:29;;;;;;;26.75;10.00;;;6.50;68.30;;;;;;6252770;28;20068;-78
2024/01/09 15:51:33;;;;;;;18.15;9.18;;;6.40;68.20;;;;;;6268857;28;20053;-79